Thunder radar more information blitzortung!


Löydät sääaseman tiedot myös:

European Weather Network

Finland Weather Exchange

Weather Underground

AWEKAS



Weather Underground säähistoriasivu

Päivittäin yhteenveto Joulukuu 7, 2017 Yksiköt:  Molemmat    Englantilaiset   Metriset
« Edellinen Päivä
Seuraava Päivä »
Päivittäin Viikoittain Kuukausittain Vuosittain Mukautettu
  Korkea: Matala: Keskiarvo:
Lämpötila: TemperatureC °F /  -17.8 °C -4.9 °F /  -20.5 °C -3.2 °F /  -19.6 °C
Kastepiste: DewpointC °F /  -17.8 °C -5.5 °F /  -20.8 °C -3.8 °F /  -19.9 °C
Kosteus: Humidity % 94 % 95 %
Tuulen nopeus: WindSpeedKMH mph /  0 km/h - 1.5 mph /  2.4 km/h
Tuulenpuuska: WindSpeedGustKMH mph /  0 km/h - -
Tuuli:- - SSE
Ilmanpaine: PressurehPa in /  0 hPa 986.0 in /  33386 hPa -
Sade: 0.0 in /  0 mm    
Historical Graphs
 
 
Taulukkotiedot Joulukuu 7, 2017
Aika Lämpötila Kastepiste Ilmanpaine Tuuli Tuulen nopeus Tuulenpuuska Kosteus Sademäärä (tunneittain)
TemperatureC °F /  -17.8 °C DewpointC °F /  -17.8 °C PressurehPa in /  0 hPa Calm     Humidity % HourlyPrecipMM in /  0 mm
00:00 -4.8 °F /  -20.4 °C -5.5 °F /  -20.8 °C 1005.3 in /  34039.5 hPa WSW 1.6 mph /  2.6 km/h 6.4 mph /  10.3 km/h 95 % 0.0 in /  0 mm
00:15 -4.9 °F /  -20.5 °C -5.4 °F /  -20.8 °C 1005.3 in /  34039.5 hPa Calm   3.2 mph /  5.1 km/h 96 % 0.0 in /  0 mm
00:30 -4.9 °F /  -20.5 °C -5.5 °F /  -20.8 °C 1005.3 in /  34039.5 hPa SW 1.6 mph /  2.6 km/h 4.8 mph /  7.7 km/h 96 % 0.0 in /  0 mm
00:45 -4.9 °F /  -20.5 °C -5.5 °F /  -20.8 °C 1005.3 in /  34039.5 hPa SSE 1.6 mph /  2.6 km/h 4.8 mph /  7.7 km/h 96 % 0.0 in /  0 mm
01:00 -4.9 °F /  -20.5 °C -5.5 °F /  -20.8 °C 1005.3 in /  34039.5 hPa Calm   3.2 mph /  5.1 km/h 96 % 0.0 in /  0 mm
01:15 -4.9 °F /  -20.5 °C -5.5 °F /  -20.8 °C 1005.0 in /  34029.3 hPa Calm   3.2 mph /  5.1 km/h 96 % 0.0 in /  0 mm
01:30 -4.9 °F /  -20.5 °C -5.4 °F /  -20.8 °C 1005.3 in /  34039.5 hPa SSW 1.6 mph /  2.6 km/h 4.8 mph /  7.7 km/h 96 % 0.0 in /  0 mm
01:45 -4.9 °F /  -20.5 °C -5.4 °F /  -20.8 °C 1005.0 in /  34029.3 hPa Calm   3.2 mph /  5.1 km/h 96 % 0.0 in /  0 mm
02:00 -4.8 °F /  -20.4 °C -5.4 °F /  -20.8 °C 1005.0 in /  34029.3 hPa South 1.6 mph /  2.6 km/h 6.4 mph /  10.3 km/h 96 % 0.0 in /  0 mm
02:15 -4.8 °F /  -20.4 °C -5.5 °F /  -20.8 °C 1005.0 in /  34029.3 hPa South 1.6 mph /  2.6 km/h 6.4 mph /  10.3 km/h 95 % 0.0 in /  0 mm
02:30 -4.8 °F /  -20.4 °C -5.5 °F /  -20.8 °C 1005.0 in /  34029.3 hPa Calm     95 % 0.0 in /  0 mm
02:45 -4.7 °F /  -20.4 °C -5.3 °F /  -20.7 °C 1005.0 in /  34029.3 hPa Calm   3.2 mph /  5.1 km/h 96 % 0.0 in /  0 mm
03:00 -4.7 °F /  -20.4 °C -5.2 °F /  -20.7 °C 1005.0 in /  34029.3 hPa Calm     96 % 0.0 in /  0 mm
03:15 -4.6 °F /  -20.3 °C -5.2 °F /  -20.7 °C 1005.0 in /  34029.3 hPa Calm     96 % 0.0 in /  0 mm
03:30 -4.6 °F /  -20.3 °C -5.1 °F /  -20.6 °C 1005.0 in /  34029.3 hPa Calm     96 % 0.0 in /  0 mm
03:45 -4.5 °F /  -20.3 °C -5.0 °F /  -20.6 °C 1005.0 in /  34029.3 hPa Calm     96 % 0.0 in /  0 mm
04:00 -4.4 °F /  -20.2 °C -4.9 °F /  -20.5 °C 1004.6 in /  34015.8 hPa Calm     96 % 0.0 in /  0 mm
04:15 -4.3 °F /  -20.2 °C -4.9 °F /  -20.5 °C 1004.6 in /  34015.8 hPa Calm     96 % 0.0 in /  0 mm
04:30 -4.2 °F /  -20.1 °C -4.8 °F /  -20.4 °C 1004.3 in /  34005.6 hPa Calm     96 % 0.0 in /  0 mm
04:45 -4.2 °F /  -20.1 °C -4.7 °F /  -20.4 °C 1004.3 in /  34005.6 hPa Calm     96 % 0.0 in /  0 mm
05:00 -4.1 °F /  -20.1 °C -4.6 °F /  -20.3 °C 1004.3 in /  34005.6 hPa Calm     96 % 0.0 in /  0 mm
05:30 -3.8 °F /  -19.9 °C -4.4 °F /  -20.2 °C 1003.9 in /  33992.1 hPa Calm   3.2 mph /  5.1 km/h 96 % 0.0 in /  0 mm
05:45 -3.7 °F /  -19.8 °C -4.3 °F /  -20.2 °C 1003.9 in /  33992.1 hPa Calm   3.2 mph /  5.1 km/h 96 % 0.0 in /  0 mm
06:00 -3.7 °F /  -19.8 °C -4.2 °F /  -20.1 °C 1003.9 in /  33992.1 hPa Calm   6.4 mph /  10.3 km/h 96 % 0.0 in /  0 mm
06:15 -3.6 °F /  -19.8 °C -4.2 °F /  -20.1 °C 1003.9 in /  33992.1 hPa Calm   3.2 mph /  5.1 km/h 96 % 0.0 in /  0 mm
06:30 -3.6 °F /  -19.8 °C -4.3 °F /  -20.2 °C 1003.9 in /  33992.1 hPa Calm   4.8 mph /  7.7 km/h 95 % 0.0 in /  0 mm
06:45 -3.6 °F /  -19.8 °C -4.3 °F /  -20.2 °C 1003.9 in /  33992.1 hPa Calm   3.2 mph /  5.1 km/h 95 % 0.0 in /  0 mm
07:00 -3.6 °F /  -19.8 °C -4.2 °F /  -20.1 °C 1003.9 in /  33992.1 hPa Calm   9.7 mph /  15.6 km/h 95 % 0.0 in /  0 mm
07:15 -3.6 °F /  -19.8 °C -4.2 °F /  -20.1 °C 1003.6 in /  33981.9 hPa Calm   6.4 mph /  10.3 km/h 95 % 0.0 in /  0 mm
07:30 -3.6 °F /  -19.8 °C -4.2 °F /  -20.1 °C 1003.9 in /  33992.1 hPa SSE 1.6 mph /  2.6 km/h 9.7 mph /  15.6 km/h 95 % 0.0 in /  0 mm
07:45 -3.6 °F /  -19.8 °C -4.2 °F /  -20.1 °C 1003.6 in /  33981.9 hPa SSE 1.6 mph /  2.6 km/h 8.0 mph /  12.9 km/h 95 % 0.0 in /  0 mm
08:00 -3.5 °F /  -19.7 °C -4.2 °F /  -20.1 °C 1003.6 in /  33981.9 hPa SSE 1.6 mph /  2.6 km/h 6.4 mph /  10.3 km/h 95 % 0.0 in /  0 mm
08:15 -3.4 °F /  -19.7 °C -4.1 °F /  -20.1 °C 1003.6 in /  33981.9 hPa SSE 1.6 mph /  2.6 km/h 9.7 mph /  15.6 km/h 95 % 0.0 in /  0 mm
08:30 -3.4 °F /  -19.7 °C -4.1 °F /  -20.1 °C 1003.3 in /  33971.7 hPa SE 1.6 mph /  2.6 km/h 8.0 mph /  12.9 km/h 95 % 0.0 in /  0 mm
08:45 -3.4 °F /  -19.7 °C -4.1 °F /  -20.1 °C 1003.3 in /  33971.7 hPa SE 1.6 mph /  2.6 km/h 8.0 mph /  12.9 km/h 95 % 0.0 in /  0 mm
09:00 -3.6 °F /  -19.8 °C -4.3 °F /  -20.2 °C 1003.3 in /  33971.7 hPa SSE 1.6 mph /  2.6 km/h 9.7 mph /  15.6 km/h 95 % 0.0 in /  0 mm
09:15 -3.7 °F /  -19.8 °C -4.4 °F /  -20.2 °C 1002.9 in /  33958.2 hPa SE 1.6 mph /  2.6 km/h 9.7 mph /  15.6 km/h 95 % 0.0 in /  0 mm
09:30 -3.9 °F /  -19.9 °C -4.8 °F /  -20.4 °C 1002.9 in /  33958.2 hPa SE 1.6 mph /  2.6 km/h 8.0 mph /  12.9 km/h 94 % 0.0 in /  0 mm
09:45 -4.2 °F /  -20.1 °C -5.0 °F /  -20.6 °C 1002.6 in /  33948 hPa SSW 1.6 mph /  2.6 km/h 11.3 mph /  18.2 km/h 94 % 0.0 in /  0 mm
10:00 -4.3 °F /  -20.2 °C -5.2 °F /  -20.7 °C 1002.6 in /  33948 hPa Calm   6.4 mph /  10.3 km/h 94 % 0.0 in /  0 mm
10:15 -4.4 °F /  -20.2 °C -5.3 °F /  -20.7 °C 1002.6 in /  33948 hPa Calm   6.4 mph /  10.3 km/h 94 % 0.0 in /  0 mm
10:30 -4.4 °F /  -20.2 °C -5.1 °F /  -20.6 °C 1002.3 in /  33937.9 hPa Calm   3.2 mph /  5.1 km/h 95 % 0.0 in /  0 mm
10:45 -4.4 °F /  -20.2 °C -5.1 °F /  -20.6 °C 1002.3 in /  33937.9 hPa Calm   8.0 mph /  12.9 km/h 95 % 0.0 in /  0 mm
11:00 -4.4 °F /  -20.2 °C -5.1 °F /  -20.6 °C 1001.9 in /  33924.3 hPa Calm   4.8 mph /  7.7 km/h 95 % 0.0 in /  0 mm
11:15 -4.3 °F /  -20.2 °C -5.0 °F /  -20.6 °C 1001.6 in /  33914.2 hPa Calm   6.4 mph /  10.3 km/h 95 % 0.0 in /  0 mm
11:30 -4.2 °F /  -20.1 °C -4.8 °F /  -20.4 °C 1001.2 in /  33900.6 hPa Calm   6.4 mph /  10.3 km/h 95 % 0.0 in /  0 mm
11:45 -4.1 °F /  -20.1 °C -4.7 °F /  -20.4 °C 1001.2 in /  33900.6 hPa Calm   6.4 mph /  10.3 km/h 95 % 0.0 in /  0 mm
12:00 -4.0 °F /  -20 °C -4.7 °F /  -20.4 °C 1001.2 in /  33900.6 hPa Calm   6.4 mph /  10.3 km/h 95 % 0.0 in /  0 mm
12:15 -4.0 °F /  -20 °C -4.7 °F /  -20.4 °C 1000.9 in /  33890.5 hPa Calm   6.4 mph /  10.3 km/h 95 % 0.0 in /  0 mm
12:30 -3.9 °F /  -19.9 °C -4.6 °F /  -20.3 °C 1000.9 in /  33890.5 hPa Calm   6.4 mph /  10.3 km/h 95 % 0.0 in /  0 mm
12:45 -3.9 °F /  -19.9 °C -4.6 °F /  -20.3 °C 1000.6 in /  33880.3 hPa Calm     95 % 0.0 in /  0 mm
13:00 -3.8 °F /  -19.9 °C -4.7 °F /  -20.4 °C 1000.6 in /  33880.3 hPa Calm   6.4 mph /  10.3 km/h 94 % 0.0 in /  0 mm
13:15 -3.8 °F /  -19.9 °C -4.5 °F /  -20.3 °C 999.9 in /  33856.6 hPa Calm   4.8 mph /  7.7 km/h 95 % 0.0 in /  0 mm
13:30 -3.8 °F /  -19.9 °C -4.6 °F /  -20.3 °C 999.9 in /  33856.6 hPa SSE 1.6 mph /  2.6 km/h 8.0 mph /  12.9 km/h 94 % 0.0 in /  0 mm
13:45 -3.7 °F /  -19.8 °C -4.5 °F /  -20.3 °C 999.5 in /  33843.1 hPa Calm   8.0 mph /  12.9 km/h 94 % 0.0 in /  0 mm
14:00 -3.7 °F /  -19.8 °C -4.5 °F /  -20.3 °C 999.5 in /  33843.1 hPa South 1.6 mph /  2.6 km/h 8.0 mph /  12.9 km/h 94 % 0.0 in /  0 mm
14:15 -3.6 °F /  -19.8 °C -4.2 °F /  -20.1 °C 999.2 in /  33832.9 hPa South 1.6 mph /  2.6 km/h 9.7 mph /  15.6 km/h 95 % 0.0 in /  0 mm
14:30 -3.6 °F /  -19.8 °C -4.2 °F /  -20.1 °C 998.9 in /  33822.8 hPa SSE 1.6 mph /  2.6 km/h 6.4 mph /  10.3 km/h 95 % 0.0 in /  0 mm
14:45 -3.4 °F /  -19.7 °C -4.1 °F /  -20.1 °C 998.5 in /  33809.2 hPa South 1.6 mph /  2.6 km/h 8.0 mph /  12.9 km/h 95 % 0.0 in /  0 mm
15:00 -3.3 °F /  -19.6 °C -4.0 °F /  -20 °C 998.2 in /  33799.1 hPa SE 1.6 mph /  2.6 km/h 6.4 mph /  10.3 km/h 95 % 0.0 in /  0 mm
15:15 -3.3 °F /  -19.6 °C -4.0 °F /  -20 °C 997.9 in /  33788.9 hPa SE 1.6 mph /  2.6 km/h 6.4 mph /  10.3 km/h 95 % 0.0 in /  0 mm
15:30 -3.2 °F /  -19.6 °C -3.9 °F /  -19.9 °C 997.2 in /  33765.2 hPa SW 1.6 mph /  2.6 km/h 6.4 mph /  10.3 km/h 95 % 0.0 in /  0 mm
15:45 -3.1 °F /  -19.5 °C -3.6 °F /  -19.8 °C 996.5 in /  33741.5 hPa East 1.6 mph /  2.6 km/h 11.3 mph /  18.2 km/h 96 % 0.0 in /  0 mm
16:00 -2.8 °F /  -19.3 °C -3.4 °F /  -19.7 °C 996.2 in /  33731.3 hPa East 1.6 mph /  2.6 km/h 9.7 mph /  15.6 km/h 96 % 0.0 in /  0 mm
16:15 -2.7 °F /  -19.3 °C -3.2 °F /  -19.6 °C 995.8 in /  33717.8 hPa SE 1.6 mph /  2.6 km/h 9.7 mph /  15.6 km/h 96 % 0.0 in /  0 mm
16:30 -2.5 °F /  -19.2 °C -3.1 °F /  -19.5 °C 995.5 in /  33707.6 hPa East 1.6 mph /  2.6 km/h 9.7 mph /  15.6 km/h 96 % 0.0 in /  0 mm
16:45 -2.4 °F /  -19.1 °C -2.9 °F /  -19.4 °C 995.1 in /  33694.1 hPa SSE 3.2 mph /  5.1 km/h 11.3 mph /  18.2 km/h 96 % 0.0 in /  0 mm
17:00 -2.3 °F /  -19.1 °C -2.8 °F /  -19.3 °C 994.8 in /  33683.9 hPa SE 3.2 mph /  5.1 km/h 11.3 mph /  18.2 km/h 96 % 0.0 in /  0 mm
17:30 -2.2 °F /  -19 °C -2.7 °F /  -19.3 °C 993.8 in /  33650.1 hPa SE 3.2 mph /  5.1 km/h 12.9 mph /  20.8 km/h 96 % 0.0 in /  0 mm
17:45 -2.2 °F /  -19 °C -2.7 °F /  -19.3 °C 993.5 in /  33639.9 hPa SE 3.2 mph /  5.1 km/h 16.1 mph /  25.9 km/h 96 % 0.0 in /  0 mm
18:15 -2.1 °F /  -18.9 °C -2.6 °F /  -19.2 °C 992.4 in /  33602.7 hPa ESE 3.2 mph /  5.1 km/h 17.7 mph /  28.5 km/h 96 % 0.0 in /  0 mm
18:30 -1.9 °F /  -18.8 °C -2.5 °F /  -19.2 °C 992.1 in /  33592.5 hPa SSE 4.8 mph /  7.7 km/h 14.5 mph /  23.3 km/h 96 % 0.0 in /  0 mm
18:45 -1.8 °F /  -18.8 °C -2.2 °F /  -19 °C 991.8 in /  33582.3 hPa SE 3.2 mph /  5.1 km/h 9.7 mph /  15.6 km/h 97 % 0.0 in /  0 mm
19:00 -1.8 °F /  -18.8 °C -2.2 °F /  -19 °C 991.4 in /  33568.8 hPa SSE 4.8 mph /  7.7 km/h 14.5 mph /  23.3 km/h 97 % 0.0 in /  0 mm
19:15 -1.7 °F /  -18.7 °C -2.1 °F /  -18.9 °C 991.1 in /  33558.6 hPa SSE 4.8 mph /  7.7 km/h 12.9 mph /  20.8 km/h 97 % 0.0 in /  0 mm
19:45 -1.6 °F /  -18.7 °C -2.0 °F /  -18.9 °C 990.4 in /  33534.9 hPa SSE 3.2 mph /  5.1 km/h 14.5 mph /  23.3 km/h 97 % 0.0 in /  0 mm
20:00 -1.4 °F /  -18.6 °C -1.9 °F /  -18.8 °C 990.1 in /  33524.8 hPa SE 4.8 mph /  7.7 km/h 17.7 mph /  28.5 km/h 97 % 0.0 in /  0 mm
20:30 -1.3 °F /  -18.5 °C -1.7 °F /  -18.7 °C 989.4 in /  33501.1 hPa South 3.2 mph /  5.1 km/h 14.5 mph /  23.3 km/h 97 % 0.0 in /  0 mm
20:45 -1.2 °F /  -18.4 °C -1.6 °F /  -18.7 °C 989.4 in /  33501.1 hPa South 4.8 mph /  7.7 km/h 14.5 mph /  23.3 km/h 97 % 0.0 in /  0 mm
21:00 -1.1 °F /  -18.4 °C -1.5 °F /  -18.6 °C 989.1 in /  33490.9 hPa South 4.8 mph /  7.7 km/h 14.5 mph /  23.3 km/h 97 % 0.0 in /  0 mm
21:30 -0.9 °F /  -18.3 °C -1.4 °F /  -18.6 °C 988.0 in /  33453.7 hPa South 3.2 mph /  5.1 km/h 14.5 mph /  23.3 km/h 97 % 0.0 in /  0 mm
21:45 -0.8 °F /  -18.2 °C -1.2 °F /  -18.4 °C 987.7 in /  33443.5 hPa SSW 3.2 mph /  5.1 km/h 14.5 mph /  23.3 km/h 97 % 0.0 in /  0 mm
22:15 -0.6 °F /  -18.1 °C -1.0 °F /  -18.3 °C 987.0 in /  33419.8 hPa SSE 4.8 mph /  7.7 km/h 12.9 mph /  20.8 km/h 97 % 0.0 in /  0 mm
22:30 -0.4 °F /  -18 °C -0.9 °F /  -18.3 °C 987.0 in /  33419.8 hPa South 4.8 mph /  7.7 km/h 12.9 mph /  20.8 km/h 97 % 0.0 in /  0 mm
22:45 -0.3 °F /  -17.9 °C -0.8 °F /  -18.2 °C 986.7 in /  33409.7 hPa SSE 4.8 mph /  7.7 km/h 19.3 mph /  31.1 km/h 97 % 0.0 in /  0 mm
23:00 -0.1 °F /  -17.8 °C -0.5 °F /  -18.1 °C 986.3 in /  33396.1 hPa South 4.8 mph /  7.7 km/h 16.1 mph /  25.9 km/h 97 % 0.0 in /  0 mm
23:15 -0.1 °F /  -17.8 °C -0.5 °F /  -18.1 °C 986.3 in /  33396.1 hPa SSE 4.8 mph /  7.7 km/h 14.5 mph /  23.3 km/h 97 % 0.0 in /  0 mm
23:30 0.1 °F /  -17.7 °C -0.4 °F /  -18 °C 986.3 in /  33396.1 hPa South 4.8 mph /  7.7 km/h 12.9 mph /  20.8 km/h 97 % 0.0 in /  0 mm
23:45 0.2 °F /  -17.7 °C -0.3 °F /  -17.9 °C 986.0 in /  33386 hPa SSE 4.8 mph /  7.7 km/h 12.9 mph /  20.8 km/h 97 % 0.0 in /  0 mm
Esan sääasema
Terveisin Weather Underground - 2.75 mb

Alkuperäinen skripti  Jim McMurry - jmcmurry@mwt.net Sovitettu myös templatelle  Wim van der Kuil - Leuven-Template.eu

Laitteet joita käytämme:

Sääasema
Davis VP2

Sääasemaohjelma
Cumulus

Sääaseman tietokone
Asus EeePC

Palveluntarjoaja
Suncomet

Davis VP2

Cumulus

Asus EeePC

Suncomet